Terminal Aerodrome Forecast
Issued by NWS

Home | Current Version | Previous Version | Text Only | Print | Product List | Glossary On
Versions: 1 2 3 4 5 6 7 8 9 10 11 12 13 14 15 16 17 18 19 20 21 22 23 24 25 26 27 28 29 30 31 32 33 34 35 36 37 38 39 40 41 42 43 44 45 46 47 48 49 50
000
FTUS42 KRAH 231120
TAFRWI
TAF
KRWI 231120Z 2312/2412 VRB05KT 5SM -SHRA BKN006 OVC070
     FM231800 01006KT 3SM -SHRA BR BKN012 OVC040
      TEMPO 2319/2323 6SM BR SCT005 OVC025=

USA.gov is the U.S. government's official web portal to all federal, state and local government web resources and services.